Time;durP1;ratioP1;P1;durP2;ratioP2;P2;SDS_P1;SDS_P2;PMS_P1;PMS_P2;Temp;Humidity;BMP_temperature;BMP_pressure;BME280_temperature;BME280_humidity;BME280_pressure;Samples;Min_cycle;Max_cycle;Signal;HPM_P1;HPM_P2
2021/11/24 00:00:01;;;;;;;;;;;6.20;93.20;;;;;;5032911;28;19951;-81
2021/11/24 00:02:28;;;;;;;;;;;6.10;93.20;;;;;;5036052;28;20380;-81
2021/11/24 00:04:55;;;;;;;;;;;6.10;93.10;;;;;;5021087;28;20011;-79
2021/11/24 00:07:22;;;;;;;;;;;6.10;93.00;;;;;;5025278;28;19921;-80
2021/11/24 00:09:48;;;;;;;;;;;6.00;92.90;;;;;;5034142;28;19925;-76
2021/11/24 00:12:15;;;;;;;;;;;5.90;92.70;;;;;;5031969;28;19929;-80
2021/11/24 00:14:42;;;;;;;24.25;14.27;;;5.90;92.70;;;;;;5031425;28;19921;-79
2021/11/24 00:17:09;;;;;;;23.05;14.90;;;5.80;92.60;;;;;;5025868;28;20046;-77
2021/11/24 00:19:36;;;;;;;;;;;5.80;92.70;;;;;;5017348;28;20056;-79
2021/11/24 00:22:03;;;;;;;;;;;5.70;92.70;;;;;;5026189;28;19921;-80
2021/11/24 00:24:30;;;;;;;;;;;5.70;92.90;;;;;;5032633;28;19955;-80
2021/11/24 00:26:58;;;;;;;;;;;5.60;92.60;;;;;;5029553;28;19928;-81
2021/11/24 00:29:24;;;;;;;;;;;5.60;92.60;;;;;;5032073;28;19923;-77
2021/11/24 00:31:51;;;;;;;;;;;5.60;92.50;;;;;;5029622;28;20361;-80
2021/11/24 00:34:18;;;;;;;;;;;5.50;92.60;;;;;;5027341;28;19931;-79
2021/11/24 00:36:45;;;;;;;;;;;5.40;93.20;;;;;;5035894;28;19971;-78
2021/11/24 00:39:12;;;;;;;;;;;5.40;93.10;;;;;;5023926;28;20341;-81
2021/11/24 00:41:39;;;;;;;;;;;5.30;93.10;;;;;;5030441;28;20435;-81
2021/11/24 00:44:05;;;;;;;;;;;5.20;93.00;;;;;;5030055;28;20300;-81
2021/11/24 00:46:33;;;;;;;;;;;5.20;93.10;;;;;;5032467;28;19921;-80
2021/11/24 00:49:04;;;;;;;;;;;5.10;93.00;;;;;;5009809;28;19920;-76
2021/11/24 00:51:31;;;;;;;;;;;5.10;92.70;;;;;;5034633;28;19921;-81
2021/11/24 00:53:58;;;;;;;;;;;5.00;92.90;;;;;;5037728;28;19925;-76
2021/11/24 00:56:25;;;;;;;;;;;5.00;93.30;;;;;;5032677;28;19925;-77
2021/11/24 00:58:52;;;;;;;;;;;5.00;93.60;;;;;;5036328;28;19921;-79
2021/11/24 01:01:18;;;;;;;;;;;5.00;93.50;;;;;;5022957;28;19925;-80
2021/11/24 01:03:45;;;;;;;;;;;4.90;93.40;;;;;;5030028;28;20017;-77
2021/11/24 01:06:12;;;;;;;;;;;4.90;93.30;;;;;;5014304;28;19928;-81
2021/11/24 01:08:39;;;;;;;;;;;4.90;93.30;;;;;;5017641;28;19920;-80
2021/11/24 01:11:06;;;;;;;;;;;4.90;93.20;;;;;;5033852;28;19971;-77
2021/11/24 01:13:36;;;;;;;;;;;4.90;93.20;;;;;;5033846;28;19971;-81
2021/11/24 01:16:03;;;;;;;;;;;4.90;93.20;;;;;;5027895;28;19922;-77
2021/11/24 01:18:30;;;;;;;;;;;4.80;93.10;;;;;;5028025;28;19978;-81
2021/11/24 01:20:56;;;;;;;;;;;4.80;93.10;;;;;;5030672;28;20408;-77
2021/11/24 01:23:23;;;;;;;;;;;4.80;93.20;;;;;;5024684;28;20381;-81
2021/11/24 01:25:50;;;;;;;;;;;4.80;93.00;;;;;;5033230;28;20789;-77
2021/11/24 01:28:19;;;;;;;;;;;4.80;93.00;;;;;;5032737;28;20293;-80
2021/11/24 01:30:46;;;;;;;;;;;4.70;92.90;;;;;;5030404;28;19921;-80
2021/11/24 01:33:13;;;;;;;;;;;4.60;93.20;;;;;;5031965;28;19925;-80
2021/11/24 01:35:40;;;;;;;;;;;4.50;93.30;;;;;;5033385;28;20316;-80
2021/11/24 01:38:08;;;;;;;;;;;4.50;93.40;;;;;;5025863;28;19964;-80
2021/11/24 01:40:34;;;;;;;;;;;4.40;93.20;;;;;;5019348;28;20373;-80
2021/11/24 01:43:01;;;;;;;;;;;4.40;93.10;;;;;;5024463;28;20404;-81
2021/11/24 01:45:28;;;;;;;;;;;4.40;93.00;;;;;;5024239;28;19925;-77
2021/11/24 01:47:55;;;;;;;;;;;4.30;92.90;;;;;;5013979;28;19929;-80
2021/11/24 01:50:22;;;;;;;;;;;4.30;92.80;;;;;;5022657;28;19921;-80
2021/11/24 01:52:49;;;;;;;;;;;4.10;93.10;;;;;;5022967;28;20290;-77
2021/11/24 01:55:16;;;;;;;;;;;4.10;93.10;;;;;;5033394;28;20484;-76
2021/11/24 01:57:45;;;;;;;;;;;4.10;93.00;;;;;;5027471;28;19925;-80
2021/11/24 02:00:14;;;;;;;;;;;4.00;92.80;;;;;;5022541;28;19925;-81
2021/11/24 02:02:40;;;;;;;;;;;4.00;92.80;;;;;;5027448;28;19925;-79
2021/11/24 02:05:08;;;;;;;;;;;4.00;92.70;;;;;;5026326;28;20013;-81
2021/11/24 02:07:34;;;;;;;;;;;3.90;92.80;;;;;;5021091;28;20287;-77
2021/11/24 02:10:01;;;;;;;;;;;3.90;92.90;;;;;;5016624;28;20419;-77
2021/11/24 02:12:28;;;;;;;;;;;3.90;92.90;;;;;;5029517;28;19926;-80
2021/11/24 02:14:55;;;;;;;;;;;3.80;93.20;;;;;;5017584;28;19928;-76
2021/11/24 02:17:22;;;;;;;;;;;3.80;92.60;;;;;;5023234;28;20411;-80
2021/11/24 02:19:49;;;;;;;;;;;3.80;92.50;;;;;;5029984;28;19932;-81
2021/11/24 02:22:15;;;;;;;;;;;3.80;92.70;;;;;;5020804;28;19921;-80
2021/11/24 02:24:44;;;;;;;;;;;3.70;92.70;;;;;;5031217;28;19921;-80
2021/11/24 02:27:12;;;;;;;;;;;3.70;93.00;;;;;;5019410;28;19921;-80
2021/11/24 02:29:39;;;;;;;;;;;3.70;93.10;;;;;;5016911;28;20443;-79
2021/11/24 02:32:07;;;;;;;;;;;3.60;93.40;;;;;;5014336;28;19925;-81
2021/11/24 02:34:34;;;;;;;;;;;3.60;92.90;;;;;;5022849;28;20369;-77
2021/11/24 02:37:01;;;;;;;;;;;3.60;92.80;;;;;;5024083;28;19925;-81
2021/11/24 02:39:30;;;;;;;;;;;3.50;92.90;;;;;;5028499;28;19971;-80
2021/11/24 02:41:57;;;;;;;;;;;3.50;92.90;;;;;;5033124;28;19928;-76
2021/11/24 02:44:28;;;;;;;;;;;3.50;93.40;;;;;;5020443;28;19925;-80
2021/11/24 02:47:05;;;;;;;;;;;3.50;93.60;;;;;;5039298;28;19979;-80
2021/11/24 02:49:33;;;;;;;;;;;3.50;93.70;;;;;;5018768;28;19922;-81
2021/11/24 02:51:59;;;;;;;;;;;3.50;93.80;;;;;;5025897;28;19977;-77
2021/11/24 02:54:26;;;;;;;;;;;3.50;93.90;;;;;;5034027;28;20372;-80
2021/11/24 02:56:58;;;;;;;;;;;3.50;93.70;;;;;;5030134;28;19971;-77
2021/11/24 02:59:25;;;;;;;;;;;3.50;93.70;;;;;;5032954;28;20032;-81
2021/11/24 03:01:52;;;;;;;;;;;3.40;93.70;;;;;;5030888;28;20463;-81
2021/11/24 03:04:19;;;;;;;;;;;3.30;93.60;;;;;;5029691;28;20003;-81
2021/11/24 03:06:46;;;;;;;;;;;3.20;93.70;;;;;;5036587;28;19952;-81
2021/11/24 03:09:13;;;;;;;;;;;3.20;93.90;;;;;;5034202;28;20514;-77
2021/11/24 03:11:39;;;;;;;;;;;3.20;93.80;;;;;;5030865;28;19925;-81
2021/11/24 03:14:06;;;;;;;;;;;3.20;93.70;;;;;;5032121;28;19928;-81
2021/11/24 03:16:33;;;;;;;;;;;3.20;93.80;;;;;;5034573;28;19944;-77
2021/11/24 03:19:00;;;;;;;;;;;3.10;94.10;;;;;;5030564;28;19921;-81
2021/11/24 03:21:27;;;;;;;;;;;3.10;93.90;;;;;;5032900;28;19921;-80
2021/11/24 03:23:54;;;;;;;;;;;3.10;93.80;;;;;;5022263;28;19963;-77
2021/11/24 03:26:20;;;;;;;;;;;3.00;93.60;;;;;;5029969;28;19921;-81
2021/11/24 03:28:47;;;;;;;;;;;3.00;93.70;;;;;;5036118;28;19963;-80
2021/11/24 03:31:14;;;;;;;;;;;3.10;93.70;;;;;;5034347;28;19972;-79
2021/11/24 03:33:41;;;;;;;;;;;3.10;93.70;;;;;;5025275;28;19961;-77
2021/11/24 03:36:08;;;;;;;;;;;3.00;93.80;;;;;;5036258;28;19967;-80
2021/11/24 03:38:35;;;;;;;;;;;3.00;93.70;;;;;;5032162;28;20062;-81
2021/11/24 03:41:02;;;;;;;;;;;3.00;93.60;;;;;;5025770;28;19968;-80
2021/11/24 03:43:29;;;;;;;;;;;2.90;93.60;;;;;;5031490;28;19925;-81
2021/11/24 03:45:56;;;;;;;;;;;2.80;94.20;;;;;;5034831;28;19921;-81
2021/11/24 03:48:22;;;;;;;;;;;2.80;93.80;;;;;;5030133;28;19987;-81
2021/11/24 03:50:49;;;;;;;;;;;2.80;93.80;;;;;;5023693;28;19971;-80
2021/11/24 03:53:16;;;;;;;;;;;2.80;93.60;;;;;;5028445;28;19921;-76
2021/11/24 03:55:43;;;;;;;;;;;2.80;93.50;;;;;;5039357;28;19929;-81
2021/11/24 03:58:10;;;;;;;;;;;2.80;93.40;;;;;;5036480;28;19937;-80
2021/11/24 04:00:37;;;;;;;;;;;2.80;93.30;;;;;;5026399;28;19925;-80
2021/11/24 04:03:04;;;;;;;;;;;2.80;93.50;;;;;;5022821;28;19921;-80
2021/11/24 04:05:31;;;;;;;;;;;2.80;93.40;;;;;;5033314;28;19921;-81
2021/11/24 04:07:58;;;;;;;;;;;2.80;93.30;;;;;;5032776;28;20412;-76
2021/11/24 04:10:25;;;;;;;;;;;2.80;93.70;;;;;;5027023;28;19924;-76
2021/11/24 04:12:52;;;;;;;;;;;2.80;93.90;;;;;;5035913;28;19921;-81
2021/11/24 04:15:19;;;;;;;;;;;2.70;93.60;;;;;;5023657;28;19921;-80
2021/11/24 04:17:46;;;;;;;;;;;2.70;93.50;;;;;;5028225;28;20392;-76
2021/11/24 04:20:15;;;;;;;;;;;2.70;93.50;;;;;;5018426;28;19922;-80
2021/11/24 04:22:42;;;;;;;;;;;2.70;93.50;;;;;;5025545;28;19968;-76
2021/11/24 04:25:10;;;;;;;;;;;2.70;93.50;;;;;;5020781;28;19975;-76
2021/11/24 04:27:37;;;;;;;;;;;2.70;93.40;;;;;;5035422;28;19952;-76
2021/11/24 04:30:04;;;;;;;;;;;2.70;93.30;;;;;;5022438;28;20369;-81
2021/11/24 04:32:31;;;;;;;;;;;2.70;93.30;;;;;;5021565;28;19975;-81
2021/11/24 04:34:58;;;;;;;;;;;2.70;93.80;;;;;;5036142;28;20353;-80
2021/11/24 04:37:25;;;;;;;;;;;2.60;93.90;;;;;;5028271;28;19929;-77
2021/11/24 04:39:52;;;;;;;;;;;2.60;93.70;;;;;;5028601;28;19921;-80
2021/11/24 04:42:19;;;;;;;;;;;2.60;93.50;;;;;;5032537;28;20373;-77
2021/11/24 04:44:45;;;;;;;;;;;2.60;93.30;;;;;;5026625;28;19921;-80
2021/11/24 04:47:12;;;;;;;;;;;2.60;93.20;;;;;;5033164;28;19920;-81
2021/11/24 04:49:39;;;;;;;;;;;2.60;93.20;;;;;;5020890;28;19925;-81
2021/11/24 04:52:06;;;;;;;;;;;2.50;93.30;;;;;;5019172;28;19921;-82
2021/11/24 04:54:33;;;;;;;;;;;2.50;93.10;;;;;;5026215;28;19943;-80
2021/11/24 04:57:00;;;;;;;;;;;2.50;92.90;;;;;;5035687;28;19925;-77
2021/11/24 04:59:27;;;;;;;;;;;2.40;92.80;;;;;;5032104;28;19921;-82
2021/11/24 05:01:54;;;;;;;;;;;2.40;92.80;;;;;;5030560;28;19933;-82
2021/11/24 05:04:22;;;;;;;;;;;2.40;93.00;;;;;;5022376;28;20416;-80
2021/11/24 05:06:48;;;;;;;;;;;2.20;93.60;;;;;;5033323;28;19925;-81
2021/11/24 05:09:15;;;;;;;;;;;2.20;93.90;;;;;;5048743;28;19971;-82
2021/11/24 05:11:42;;;;;;;;;;;2.20;93.80;;;;;;5021235;28;20393;-80
2021/11/24 05:14:15;;;;;;;;;;;2.20;93.80;;;;;;5020825;28;20337;-81
2021/11/24 05:16:45;;;;;;;;;;;2.20;93.80;;;;;;5027656;28;19928;-81
2021/11/24 05:19:19;;;;;;;;;;;2.20;93.80;;;;;;5020043;28;19945;-82
2021/11/24 05:21:50;;;;;;;;;;;2.20;93.80;;;;;;5022787;28;19967;-80
2021/11/24 05:24:18;;;;;;;;;;;2.20;94.20;;;;;;5031341;28;19925;-81
2021/11/24 05:26:45;;;;;;;;;;;2.30;94.20;;;;;;5028700;28;19921;-81
2021/11/24 05:29:12;;;;;;;;;;;2.20;94.10;;;;;;5016403;28;19987;-81
2021/11/24 05:31:40;;;;;;;;;;;2.20;94.00;;;;;;5025357;28;20379;-77
2021/11/24 05:34:06;;;;;;;;;;;2.20;93.90;;;;;;5033215;28;20266;-80
2021/11/24 05:36:35;;;;;;;;;;;2.10;93.80;;;;;;5033437;28;19979;-80
2021/11/24 05:39:07;;;;;;;;;;;2.10;93.70;;;;;;5033049;28;19970;-82
2021/11/24 05:41:38;;;;;;;;;;;2.00;93.70;;;;;;5033588;28;19951;-81
2021/11/24 05:44:24;;;;;;;;;;;2.00;93.70;;;;;;5034035;28;19925;-79
2021/11/24 05:47:00;;;;;;;;;;;2.00;94.00;;;;;;5032456;28;19936;-80
2021/11/24 05:49:28;;;;;;;;;;;2.00;94.30;;;;;;5027573;28;19928;-81
2021/11/24 05:51:56;;;;;;;;;;;2.00;94.30;;;;;;5019462;28;19929;-80
2021/11/24 05:54:23;;;;;;;;;;;2.00;94.40;;;;;;5022013;28;20438;-81
2021/11/24 05:56:50;;;;;;;;;;;2.10;94.30;;;;;;5031814;28;20372;-80
2021/11/24 05:59:18;;;;;;;;;;;2.10;94.20;;;;;;5035678;28;19921;-76
2021/11/24 06:01:44;;;;;;;;;;;2.10;94.10;;;;;;5018860;28;20325;-80
2021/11/24 06:04:11;;;;;;;;;;;2.00;94.10;;;;;;5034434;28;19927;-77
2021/11/24 06:06:38;;;;;;;;;;;1.90;93.90;;;;;;5033136;28;20381;-82
2021/11/24 06:09:06;;;;;;;;;;;1.90;93.90;;;;;;5034901;28;19967;-80
2021/11/24 06:11:33;;;;;;;;;;;1.90;93.90;;;;;;5033745;28;19971;-81
2021/11/24 06:13:59;;;;;;;;;;;1.90;93.80;;;;;;5031022;28;19928;-80
2021/11/24 06:16:26;;;;;;;;;;;1.90;93.80;;;;;;5025032;28;19925;-82
2021/11/24 06:18:53;;;;;;;;;;;1.90;93.70;;;;;;5032738;28;19958;-76
2021/11/24 06:21:22;;;;;;;;;;;1.90;94.00;;;;;;5030119;28;19952;-80
2021/11/24 06:23:49;;;;;;;;;;;1.90;93.80;;;;;;5016524;28;20480;-80
2021/11/24 06:26:16;;;;;;;;;;;1.90;93.80;;;;;;5023153;28;19921;-77
2021/11/24 06:28:43;;;;;;;;;;;1.90;93.70;;;;;;5026985;28;19920;-77
2021/11/24 06:31:10;;;;;;;;;;;1.90;93.80;;;;;;5023235;28;19925;-77
2021/11/24 06:33:38;;;;;;;;;;;1.90;93.60;;;;;;5032955;28;19931;-81
2021/11/24 06:36:05;;;;;;;;;;;1.80;93.80;;;;;;5032154;28;20369;-81
2021/11/24 06:38:31;;;;;;;;;;;1.80;93.80;;;;;;5026128;28;19991;-81
2021/11/24 06:40:59;;;;;;;;;;;1.80;93.80;;;;;;5020438;28;19925;-76
2021/11/24 06:43:25;;;;;;;;;;;1.80;93.70;;;;;;5029014;28;19928;-80
2021/11/24 06:45:52;;;;;;;;;;;1.80;93.60;;;;;;5032830;28;19947;-76
2021/11/24 06:48:19;;;;;;;;;;;1.80;93.50;;;;;;5031681;28;19925;-76
2021/11/24 06:50:46;;;;;;;;;;;1.80;93.40;;;;;;5020891;28;20283;-79
2021/11/24 06:53:13;;;;;;;;;;;1.80;93.30;;;;;;5020083;28;19929;-80
2021/11/24 06:55:39;;;;;;;;;;;1.80;93.70;;;;;;5024539;28;19921;-79
2021/11/24 06:58:06;;;;;;;;;;;1.70;94.10;;;;;;5039536;28;19970;-81
2021/11/24 07:00:33;;;;;;;;;;;1.80;94.10;;;;;;5028134;28;19921;-80
2021/11/24 07:03:00;;;;;;;;;;;1.80;93.90;;;;;;5025211;28;19971;-80
2021/11/24 07:05:27;;;;;;;;;;;1.80;93.80;;;;;;5019966;28;20369;-79
2021/11/24 07:07:54;;;;;;;;;;;1.80;93.70;;;;;;5033658;28;19921;-80
2021/11/24 07:10:21;;;;;;;;;;;1.80;93.60;;;;;;5032890;28;20015;-76
2021/11/24 07:12:48;;;;;;;;;;;1.80;93.60;;;;;;5026685;28;19921;-76
2021/11/24 07:15:15;;;;;;;;;;;1.80;93.40;;;;;;5033205;28;20320;-80
2021/11/24 07:17:42;;;;;;;;;;;1.80;93.60;;;;;;5030993;28;19983;-80
2021/11/24 07:20:09;;;;;;;;;;;1.80;93.30;;;;;;5026312;28;19921;-76
2021/11/24 07:22:35;;;;;;;;;;;1.90;93.40;;;;;;5024271;28;19921;-80
2021/11/24 07:25:03;;;;;;;;;;;1.90;93.70;;;;;;5025798;28;19928;-76
2021/11/24 07:27:30;;;;;;;;;;;1.90;94.00;;;;;;5032288;28;20357;-80
2021/11/24 07:29:57;;;;;;;;;;;1.90;94.00;;;;;;5020796;28;19925;-80
2021/11/24 07:32:24;;;;;;;;;;;2.10;93.90;;;;;;5019962;28;20377;-81
2021/11/24 07:34:51;;;;;;;;;;;2.50;94.10;;;;;;5020973;28;19921;-80
2021/11/24 07:37:23;;;;;;;;;;;2.80;93.60;;;;;;5020343;28;20023;-80
2021/11/24 07:39:49;;;;;;;;;;;3.10;93.40;;;;;;5019739;28;19971;-80
2021/11/24 07:42:16;;;;;;;;;;;3.30;93.20;;;;;;5026720;28;20361;-80
2021/11/24 07:44:43;;;;;;;;;;;3.60;93.00;;;;;;5019162;28;20424;-80
2021/11/24 07:47:11;;;;;;;;;;;3.70;92.70;;;;;;5021548;28;19921;-80
2021/11/24 07:49:39;;;;;;;13.00;9.73;;;3.90;92.40;;;;;;5029828;28;20420;-76
2021/11/24 07:52:06;;;;;;;13.95;12.43;;;4.10;92.60;;;;;;5033268;28;20480;-80
2021/11/24 07:54:34;;;;;;;12.07;10.45;;;4.30;92.00;;;;;;5032110;28;20418;-80
2021/11/24 07:57:01;;;;;;;14.23;12.23;;;4.40;92.10;;;;;;5031547;28;20400;-80
2021/11/24 07:59:28;;;;;;;12.55;11.25;;;4.60;92.10;;;;;;5028062;28;20522;-80
2021/11/24 08:01:55;;;;;;;13.02;11.70;;;4.80;92.00;;;;;;5018740;28;20402;-81
2021/11/24 08:04:22;;;;;;;12.43;11.13;;;4.90;91.90;;;;;;5015636;28;20424;-76
2021/11/24 08:06:49;;;;;;;14.25;12.75;;;5.00;92.10;;;;;;5028551;28;20894;-81
2021/11/24 08:09:16;;;;;;;13.95;12.55;;;5.20;91.80;;;;;;5029629;28;20398;-80
2021/11/24 08:11:43;;;;;;;16.37;14.57;;;5.40;91.70;;;;;;5029218;28;20523;-79
2021/11/24 08:14:09;;;;;;;17.55;15.80;;;5.50;91.50;;;;;;5028966;28;20454;-81
2021/11/24 08:16:36;;;;;;;16.70;14.70;;;5.70;91.50;;;;;;5025313;28;20398;-80
2021/11/24 08:19:03;;;;;;;13.90;12.50;;;5.90;91.40;;;;;;5026256;28;20893;-77
2021/11/24 08:21:30;;;;;;;14.63;12.93;;;6.10;91.00;;;;;;5020441;28;20423;-80
2021/11/24 08:23:57;;;;;;;15.05;12.98;;;6.30;90.70;;;;;;5026384;28;20406;-80
2021/11/24 08:26:25;;;;;;;16.92;13.63;;;6.50;90.40;;;;;;5028420;28;20448;-77
2021/11/24 08:28:52;;;;;;;16.20;13.50;;;6.70;90.30;;;;;;5031455;28;20413;-82
2021/11/24 08:31:20;;;;;;;17.27;13.00;;;6.90;90.10;;;;;;5033179;28;20968;-81
2021/11/24 08:33:47;;;;;;;19.65;14.98;;;7.00;89.60;;;;;;5031039;28;20405;-79
2021/11/24 08:36:15;;;;;;;15.10;13.00;;;7.10;88.70;;;;;;5013507;28;20404;-76
2021/11/24 08:38:43;;;;;;;15.05;11.68;;;7.20;89.20;;;;;;5017389;28;20895;-76
2021/11/24 08:41:13;;;;;;;13.15;11.75;;;7.30;90.00;;;;;;5028714;28;20407;-80
2021/11/24 08:43:40;;;;;;;13.10;11.70;;;7.40;88.70;;;;;;5028985;28;20917;-81
2021/11/24 08:46:07;;;;;;;12.68;11.27;;;7.50;89.30;;;;;;5026136;28;20411;-80
2021/11/24 08:48:34;;;;;;;13.73;12.32;;;7.60;88.70;;;;;;5027275;28;20396;-80
2021/11/24 08:51:01;;;;;;;13.57;11.77;;;7.70;88.90;;;;;;5018922;28;20424;-79
2021/11/24 08:53:28;;;;;;;19.08;14.98;;;7.70;88.80;;;;;;5027423;28;20423;-79
2021/11/24 08:55:55;;;;;;;19.90;15.27;;;7.70;88.10;;;;;;5027094;28;20501;-80
2021/11/24 08:58:23;;;;;;;17.58;14.15;;;7.90;88.10;;;;;;5025291;28;20888;-77
2021/11/24 09:00:50;;;;;;;17.58;14.25;;;7.90;88.20;;;;;;5042772;28;20410;-80
2021/11/24 09:03:17;;;;;;;;;;;8.00;88.00;;;;;;5018681;28;20132;-80
2021/11/24 09:05:44;;;;;;;;;;;8.10;86.90;;;;;;5015879;28;19930;-77
2021/11/24 09:08:11;;;;;;;;;;;8.10;87.00;;;;;;5021230;28;20373;-80
2021/11/24 09:10:38;;;;;;;;;;;8.20;86.90;;;;;;5033678;28;19925;-80
2021/11/24 09:13:05;;;;;;;;;;;8.30;87.00;;;;;;5027232;28;20365;-80
2021/11/24 09:15:32;;;;;;;;;;;8.40;85.00;;;;;;5030310;28;19933;-76
2021/11/24 09:18:16;;;;;;;10.48;8.55;;;8.50;84.20;;;;;;5025538;28;20372;-81
2021/11/24 09:20:44;;;;;;;9.57;8.45;;;8.40;84.30;;;;;;5019725;28;20099;-80
2021/11/24 09:23:13;;;;;;;9.27;7.20;;;8.40;84.10;;;;;;5033997;28;20490;-79
2021/11/24 09:25:49;;;;;;;8.02;7.00;;;8.50;84.30;;;;;;5018308;28;20050;-78
2021/11/24 09:28:19;;;;;;;;;;;8.60;83.50;;;;;;5015339;28;20491;-81
2021/11/24 09:30:47;;;;;;;7.53;6.25;;;8.70;83.70;;;;;;5017492;28;20321;-81
2021/11/24 09:33:14;;;;;;;9.90;7.30;;;8.90;84.50;;;;;;5016548;28;20514;-80
2021/11/24 09:35:44;;;;;;;10.55;7.95;;;9.00;82.80;;;;;;5022217;28;20050;-79
2021/11/24 09:38:11;;;;;;;;;;;9.10;83.10;;;;;;5020596;28;20387;-80
2021/11/24 09:40:38;;;;;;;10.77;7.85;;;9.10;81.90;;;;;;5025203;28;19976;-82
2021/11/24 09:43:08;;;;;;;11.07;8.55;;;9.00;83.00;;;;;;5030369;28;20868;-77
2021/11/24 09:45:38;;;;;;;12.00;7.90;;;9.10;83.00;;;;;;5022000;28;20081;-81
2021/11/24 09:48:05;;;;;;;12.25;7.90;;;9.10;82.60;;;;;;5031980;28;20107;-80
2021/11/24 09:50:36;;;;;;;9.90;7.47;;;9.10;83.50;;;;;;5027214;28;20057;-80
2021/11/24 09:53:03;;;;;;;9.77;7.93;;;9.30;84.10;;;;;;5024513;28;20050;-80
2021/11/24 09:55:37;;;;;;;9.45;7.82;;;9.40;83.60;;;;;;5022920;28;20128;-80
2021/11/24 09:58:05;;;;;;;10.27;8.80;;;9.40;82.90;;;;;;5029448;28;20049;-80
2021/11/24 10:00:34;;;;;;;10.40;7.43;;;9.40;83.20;;;;;;5043464;28;20058;-77
2021/11/24 10:03:03;;;;;;;9.82;7.90;;;9.50;82.60;;;;;;5021471;28;20042;-76
2021/11/24 10:05:32;;;;;;;10.98;8.68;;;9.60;83.40;;;;;;5020097;28;20387;-81
2021/11/24 10:07:59;;;;;;;10.63;8.38;;;9.80;81.60;;;;;;5032728;28;20080;-77
2021/11/24 10:10:27;;;;;;;9.02;7.38;;;9.80;80.90;;;;;;5018898;28;20050;-81
2021/11/24 10:12:55;;;;;;;;;;;9.90;78.60;;;;;;5031837;28;20108;-77
2021/11/24 10:15:42;;;;;;;11.75;8.25;;;10.00;80.40;;;;;;5027098;28;19995;-80
2021/11/24 10:18:09;;;;;;;;;;;10.10;78.30;;;;;;5032700;28;20049;-81
2021/11/24 10:20:43;;;;;;;;;;;10.20;75.90;;;;;;5033217;28;19921;-77
2021/11/24 10:23:33;;;;;;;;;;;10.20;77.60;;;;;;5018445;28;19991;-75
2021/11/24 10:26:32;;;;;;;6.55;5.20;;;10.30;77.30;;;;;;5014396;28;19922;-81
2021/11/24 10:29:15;;;;;;;7.75;6.68;;;10.40;76.10;;;;;;5024214;28;20042;-80
2021/11/24 10:31:52;;;;;;;8.43;6.35;;;10.60;76.60;;;;;;5027077;28;20066;-77
2021/11/24 10:34:41;;;;;;;6.70;5.35;;;10.70;74.10;;;;;;5021873;28;20416;-81
2021/11/24 10:37:11;;;;;;;8.00;6.38;;;10.70;74.00;;;;;;5021566;28;20441;-80
2021/11/24 10:39:51;;;;;;;5.70;5.10;;;10.90;75.90;;;;;;5015854;28;20432;-81
2021/11/24 10:42:25;;;;;;;5.78;4.43;;;11.00;74.00;;;;;;5023350;28;20469;-77
2021/11/24 10:44:53;;;;;;;4.60;4.20;;;11.10;70.80;;;;;;5029536;28;20411;-80
2021/11/24 10:47:21;;;;;;;5.13;4.45;;;11.20;70.00;;;;;;5030930;28;20410;-81
2021/11/24 10:49:54;;;;;;;5.60;4.95;;;11.30;69.10;;;;;;5017140;28;20895;-80
2021/11/24 10:52:37;;;;;;;6.20;4.97;;;11.40;71.30;;;;;;5030844;28;20425;-81
2021/11/24 10:55:26;;;;;;;5.90;5.03;;;11.50;69.80;;;;;;5028743;28;20394;-80
2021/11/24 10:58:24;;;;;;;5.72;4.95;;;11.50;69.40;;;;;;5031079;28;20405;-80
2021/11/24 11:00:56;;;;;;;7.60;5.70;;;11.60;69.50;;;;;;5032754;28;20418;-80
2021/11/24 11:03:43;;;;;;;7.25;5.68;;;11.70;69.90;;;;;;5023645;28;20946;-76
2021/11/24 11:06:29;;;;;;;6.22;5.45;;;11.90;69.40;;;;;;5017362;28;20414;-77
2021/11/24 11:08:57;;;;;;;7.47;6.17;;;12.00;69.90;;;;;;5021176;28;20754;-81
2021/11/24 11:11:34;;;;;;;7.30;6.03;;;12.00;68.00;;;;;;5023102;28;20446;-77
2021/11/24 11:14:21;;;;;;;8.65;6.30;;;12.10;69.10;;;;;;5023915;28;20471;-81
2021/11/24 11:16:52;;;;;;;6.35;5.75;;;12.10;69.10;;;;;;5026757;28;20433;-80
2021/11/24 11:19:49;;;;;;;6.80;6.05;;;12.20;68.60;;;;;;5011275;28;20411;-77
2021/11/24 11:22:21;;;;;;;6.45;5.80;;;12.30;69.90;;;;;;5014021;28;20474;-81
2021/11/24 11:24:48;;;;;;;6.90;6.20;;;12.30;69.20;;;;;;5018248;28;20800;-81
2021/11/24 11:27:15;;;;;;;7.68;6.18;;;12.30;68.10;;;;;;5020424;28;20046;-80
2021/11/24 11:29:44;;;;;;;6.93;5.82;;;12.30;68.90;;;;;;5017346;28;20054;-81
2021/11/24 11:32:12;;;;;;;8.30;6.40;;;12.50;68.90;;;;;;5017325;28;20061;-77
2021/11/24 11:34:39;;;;;;;6.43;5.40;;;12.50;68.50;;;;;;5016541;28;20084;-80
2021/11/24 11:37:07;;;;;;;7.10;5.70;;;12.60;68.50;;;;;;5015657;28;20046;-79
2021/11/24 11:39:35;;;;;;;8.45;6.72;;;12.60;67.80;;;;;;5017254;28;20073;-81
2021/11/24 11:42:15;;;;;;;10.88;6.32;;;12.60;67.80;;;;;;5025464;28;20504;-80
2021/11/24 11:45:08;;;;;;;7.70;6.38;;;12.60;68.20;;;;;;5027717;28;20581;-80
2021/11/24 11:47:49;;;;;;;8.75;6.63;;;12.60;66.50;;;;;;5028886;28;20060;-80
2021/11/24 11:50:59;;;;;;;7.38;5.72;;;12.50;67.50;;;;;;5016096;28;20042;-80
2021/11/24 11:53:38;;;;;;;7.20;6.03;;;12.50;66.90;;;;;;4984813;28;20465;-80
2021/11/24 11:56:07;;;;;;;7.38;5.90;;;12.50;66.90;;;;;;5030255;28;20489;-80
2021/11/24 11:58:44;;;;;;;9.93;6.13;;;12.50;67.90;;;;;;5031126;28;20050;-78
2021/11/24 12:01:15;;;;;;;9.40;6.15;;;12.50;67.50;;;;;;5038556;28;20049;-80
2021/11/24 12:04:05;;;;;;;8.73;6.55;;;12.60;68.30;;;;;;5032917;28;20099;-77
2021/11/24 12:06:39;;;;;;;10.35;6.95;;;12.70;66.20;;;;;;5032101;28;20065;-81
2021/11/24 12:09:06;;;;;;;5.55;4.97;;;12.80;66.00;;;;;;5028069;28;20437;-78
2021/11/24 12:11:52;;;;;;;;;;;12.90;65.90;;;;;;5034143;28;20057;-80
2021/11/24 12:14:37;;;;;;;;;;;13.00;65.10;;;;;;5027770;28;19945;-80
2021/11/24 12:17:27;;;;;;;;;;;12.90;65.30;;;;;;5045733;28;19921;-80
2021/11/24 12:20:27;;;;;;;7.57;6.20;;;13.00;66.00;;;;;;5031416;28;19921;-77
2021/11/24 12:22:56;;;;;;;7.70;5.97;;;13.10;66.00;;;;;;5030903;28;20045;-80
2021/11/24 12:25:23;;;;;;;8.98;5.30;;;13.10;66.80;;;;;;5033312;28;20659;-80
2021/11/24 12:27:53;;;;;;;;;;;13.20;65.30;;;;;;5033512;28;20048;-81
2021/11/24 12:33:19;;;;;;;10.65;6.32;;;13.30;64.90;;;;;;5034264;28;20501;-81
2021/11/24 12:35:48;;;;;;;9.82;5.80;;;13.20;64.50;;;;;;5032375;28;20046;-80
2021/11/24 12:38:29;;;;;;;9.68;6.88;;;13.30;65.90;;;;;;5015737;28;20126;-81
2021/11/24 12:41:05;;;;;;;7.68;6.00;;;13.30;64.90;;;;;;5031052;28;20053;-80
2021/11/24 12:43:35;;;;;;;7.80;5.97;;;13.20;65.20;;;;;;5031455;28;20060;-78
2021/11/24 12:46:11;;;;;;;8.55;7.60;;;13.30;65.70;;;;;;5028408;28;20052;-81
2021/11/24 12:48:43;;;;;;;9.48;7.72;;;13.40;65.90;;;;;;5030098;28;20048;-80
2021/11/24 12:51:25;;;;;;;9.70;7.80;;;13.50;65.90;;;;;;5029702;28;20402;-78
2021/11/24 12:53:56;;;;;;;10.13;7.43;;;13.50;65.30;;;;;;5030614;28;20046;-80
2021/11/24 12:56:35;;;;;;;10.07;8.48;;;13.30;64.60;;;;;;5025091;28;20401;-80
2021/11/24 12:59:11;;;;;;;10.10;8.07;;;13.00;65.90;;;;;;5021904;28;20061;-81
2021/11/24 13:01:41;;;;;;;9.95;7.60;;;13.20;66.60;;;;;;5027280;28;20054;-80
2021/11/24 13:04:12;;;;;;;10.63;9.15;;;13.20;66.50;;;;;;5032897;28;20456;-81
2021/11/24 13:06:55;;;;;;;9.98;8.77;;;13.30;66.70;;;;;;5024585;28;20418;-81
2021/11/24 13:09:23;;;;;;;11.30;8.75;;;13.40;66.50;;;;;;5027568;28;20417;-81
2021/11/24 13:11:55;;;;;;;10.35;8.50;;;13.50;66.40;;;;;;5026088;28;20870;-81
2021/11/24 13:14:26;;;;;;;8.73;7.85;;;13.60;65.90;;;;;;5024537;28;20412;-80
2021/11/24 13:17:06;;;;;;;9.25;7.40;;;13.70;65.60;;;;;;5021944;28;20872;-80
2021/11/24 13:20:01;;;;;;;9.50;8.30;;;13.90;65.60;;;;;;5025015;28;20410;-78
2021/11/24 13:22:40;;;;;;;10.20;8.73;;;13.90;64.20;;;;;;5021946;28;20404;-81
2021/11/24 13:25:30;;;;;;;10.73;8.68;;;13.90;65.40;;;;;;5024062;28;20803;-80
2021/11/24 13:28:00;;;;;;;9.18;8.18;;;13.90;64.90;;;;;;5025762;28;20398;-77
2021/11/24 13:30:33;;;;;;;10.27;8.20;;;13.90;64.30;;;;;;5024103;28;20913;-79
2021/11/24 13:33:11;;;;;;;11.10;9.27;;;13.80;64.10;;;;;;5025295;28;20431;-80
2021/11/24 13:36:16;;;;;;;11.53;9.00;;;13.80;64.20;;;;;;5038392;28;20410;-80
2021/11/24 13:38:52;;;;;;;10.53;8.60;;;13.80;63.90;;;;;;4936203;29;20425;-80
2021/11/24 13:41:38;;;;;;;11.35;9.18;;;13.60;64.40;;;;;;5012577;28;20404;-81
2021/11/24 13:44:07;;;;;;;11.10;9.63;;;13.70;64.40;;;;;;5028192;28;20468;-80
2021/11/24 13:46:51;;;;;;;10.93;9.68;;;13.70;64.40;;;;;;5011942;28;20392;-80
2021/11/24 13:49:25;;;;;;;12.07;9.60;;;13.70;64.10;;;;;;5023159;28;20395;-80
2021/11/24 13:52:20;;;;;;;11.35;9.43;;;13.60;63.10;;;;;;5030120;28;20426;-78
2021/11/24 13:54:52;;;;;;;11.90;9.57;;;13.50;63.20;;;;;;5026452;28;20422;-81
2021/11/24 13:57:21;;;;;;;11.82;9.80;;;13.40;62.80;;;;;;5022817;28;20420;-80
2021/11/24 13:59:56;;;;;;;12.52;10.60;;;13.40;63.30;;;;;;5031321;28;20422;-81
2021/11/24 14:02:26;;;;;;;11.63;9.70;;;13.20;62.80;;;;;;5016214;28;20437;-81